Time;durP1;ratioP1;P1;durP2;ratioP2;P2;SDS_P1;SDS_P2;PMS_P1;PMS_P2;Temp;Humidity;BMP_temperature;BMP_pressure;BME280_temperature;BME280_humidity;BME280_pressure;Samples;Min_cycle;Max_cycle;Signal;HPM_P1;HPM_P2
2023/02/15 00:01:11;;;;;;;39.33;25.55;;;;;;;3.28;64.33;95835.94;4207635;28;20106;-44
2023/02/15 00:03:15;;;;;;;40.17;26.00;;;;;;;3.27;64.21;95829.94;4207920;28;20048;-44
2023/02/15 00:05:17;;;;;;;47.97;26.27;;;;;;;3.37;63.73;95830.22;4207755;28;20150;-40
2023/02/15 00:07:19;;;;;;;40.72;24.90;;;;;;;3.37;63.65;95832.81;4207160;28;20206;-43
2023/02/15 00:09:22;;;;;;;40.97;25.08;;;;;;;3.47;63.84;95836.56;4207088;28;20076;-62
2023/02/15 00:11:49;;;;;;;41.58;25.85;;;;;;;3.57;63.58;95841.22;4207764;28;20575;-64
2023/02/15 00:13:51;;;;;;;41.47;24.85;;;;;;;3.58;63.03;95830.75;4206306;28;20135;-63
2023/02/15 00:15:53;;;;;;;39.03;24.45;;;;;;;3.56;63.25;95834.38;4206975;28;20053;-64
2023/02/15 00:17:56;;;;;;;43.65;25.80;;;;;;;3.53;63.14;95845.75;4207358;28;20121;-63
2023/02/15 00:19:58;;;;;;;40.78;24.25;;;;;;;3.50;63.29;95843.31;4206501;28;20052;-63
2023/02/15 00:22:00;;;;;;;39.30;24.13;;;;;;;3.49;63.55;95844.25;4205709;28;20048;-63
2023/02/15 00:24:03;;;;;;;42.25;25.58;;;;;;;3.35;64.04;95841.59;4207552;28;20497;-63
2023/02/15 00:26:09;;;;;;;39.30;24.13;;;;;;;3.27;64.06;95844.66;4207301;28;20513;-62
2023/02/15 00:28:11;;;;;;;41.25;25.55;;;;;;;3.32;64.14;95840.03;4201840;28;20437;-63
2023/02/15 00:30:13;;;;;;;39.97;23.50;;;;;;;3.37;63.63;95844.94;4207440;28;20071;-60
2023/02/15 00:32:14;;;;;;;38.42;25.63;;;;;;;3.39;63.88;95837.91;4202509;28;20476;-62
2023/02/15 00:34:18;;;;;;;39.38;24.25;;;;;;;3.36;63.88;95844.13;4207142;28;20048;-62
2023/02/15 00:36:20;;;;;;;;;;;;;;;3.45;63.55;95843.59;4207543;28;20048;-62
2023/02/15 00:38:22;;;;;;;38.60;24.08;;;;;;;3.38;63.64;95851.81;4207035;28;19924;-62
2023/02/15 00:40:23;;;;;;;38.25;23.48;;;;;;;3.41;64.16;95851.63;4207301;28;20229;-62
2023/02/15 00:42:25;;;;;;;38.10;23.02;;;;;;;3.39;64.11;95850.88;4205677;28;20125;-64
2023/02/15 00:44:26;;;;;;;38.83;23.83;;;;;;;3.33;63.48;95856.41;4207588;28;20608;-63
2023/02/15 00:46:28;;;;;;;38.15;23.48;;;;;;;3.30;64.14;95851.41;4207209;28;20044;-63
2023/02/15 00:48:30;;;;;;;36.95;23.55;;;;;;;3.27;64.04;95848.06;4207126;28;20200;-65
2023/02/15 00:50:31;;;;;;;40.03;23.98;;;;;;;3.23;64.43;95843.97;4206662;28;20052;-63
2023/02/15 00:52:33;;;;;;;36.20;22.30;;;;;;;3.22;64.49;95847.47;4202482;28;20098;-63
2023/02/15 00:54:35;;;;;;;37.63;24.13;;;;;;;3.15;64.43;95850.50;4195438;28;20121;-63
2023/02/15 00:56:36;;;;;;;37.20;23.52;;;;;;;3.12;64.95;95846.34;4196020;28;20060;-43
2023/02/15 00:58:38;;;;;;;38.20;24.73;;;;;;;3.20;64.66;95844.13;4194312;28;20064;-41
2023/02/15 01:00:41;;;;;;;39.17;23.88;;;;;;;3.23;64.67;95843.97;4195599;28;20048;-62
2023/02/15 01:02:42;;;;;;;39.20;24.08;;;;;;;3.32;64.25;95852.16;4194254;28;20459;-65
2023/02/15 01:04:44;;;;;;;37.55;23.95;;;;;;;3.24;64.13;95850.81;4195561;28;20086;-63
2023/02/15 01:06:46;;;;;;;37.05;24.13;;;;;;;3.28;64.52;95847.13;4195650;28;20389;-62
2023/02/15 01:08:48;;;;;;;40.15;24.17;;;;;;;3.34;63.82;95850.31;4192493;28;20044;-59
2023/02/15 01:10:49;;;;;;;38.08;23.15;;;;;;;3.27;64.21;95848.06;4194247;28;20053;-63
2023/02/15 01:12:52;;;;;;;37.70;23.85;;;;;;;3.29;64.30;95842.78;4193905;28;20049;-62
2023/02/15 01:14:54;;;;;;;39.38;23.42;;;;;;;3.25;64.54;95842.13;4195872;28;20045;-63
2023/02/15 01:16:55;;;;;;;37.90;24.13;;;;;;;3.29;64.16;95847.97;4195299;28;20117;-64
2023/02/15 01:18:57;;;;;;;38.85;23.92;;;;;;;3.27;64.88;95840.28;4195455;28;20049;-61
2023/02/15 01:21:00;;;;;;;39.30;24.02;;;;;;;3.21;64.31;95835.47;4193053;28;20162;-61
2023/02/15 01:23:01;;;;;;;33.33;21.73;;;;;;;3.25;64.44;95842.13;4192738;28;20106;-62
2023/02/15 01:25:04;;;;;;;36.80;24.70;;;;;;;3.33;64.29;95844.28;4195085;28;20048;-63
2023/02/15 01:27:05;;;;;;;36.17;23.20;;;;;;;3.39;64.04;95836.16;4193933;28;20063;-46
2023/02/15 01:29:07;;;;;;;37.17;23.45;;;;;;;3.35;63.98;95842.44;4195180;28;20048;-45
2023/02/15 01:31:13;;;;;;;38.60;23.80;;;;;;;3.38;64.11;95828.50;4195335;28;20082;-45
2023/02/15 01:33:17;;;;;;;38.20;24.25;;;;;;;3.35;64.29;95831.25;4195052;28;20070;-45
2023/02/15 01:35:19;;;;;;;37.60;23.00;;;;;;;3.35;64.08;95828.66;4195175;28;20056;-43
2023/02/15 01:37:21;;;;;;;35.67;23.23;;;;;;;3.33;64.17;95828.72;4181923;28;20059;-44
2023/02/15 01:39:22;;;;;;;37.70;22.67;;;;;;;3.33;64.21;95835.69;4195195;28;20512;-44
2023/02/15 01:41:25;;;;;;;37.22;23.02;;;;;;;3.36;64.56;95831.16;4194939;28;20055;-45
2023/02/15 01:43:41;;;;;;;38.08;23.05;;;;;;;3.27;64.57;95835.13;4193283;28;20138;-46
2023/02/15 01:45:46;;;;;;;34.67;22.77;;;;;;;3.31;64.37;95817.63;4195081;28;20045;-44
2023/02/15 01:48:04;;;;;;;35.88;23.08;;;;;;;3.20;64.89;95818.22;4193698;28;20076;-44
2023/02/15 01:50:33;;;;;;;36.53;22.70;;;;;;;3.25;64.77;95816.25;4194775;28;20084;-43
2023/02/15 01:52:38;;;;;;;35.83;23.17;;;;;;;3.22;64.55;95806.03;4191997;28;20083;-42
2023/02/15 01:54:40;;;;;;;36.75;22.05;;;;;;;3.18;64.84;95817.47;4194664;28;20052;-41
2023/02/15 01:56:42;;;;;;;35.70;21.92;;;;;;;3.13;65.36;95816.09;4193602;28;20048;-42
2023/02/15 01:58:45;;;;;;;36.15;23.08;;;;;;;3.05;65.39;95813.91;4193298;28;20045;-42
2023/02/15 02:00:47;;;;;;;38.90;23.63;;;;;;;3.10;65.26;95811.06;4193610;28;20045;-49
2023/02/15 02:02:52;;;;;;;37.03;22.48;;;;;;;3.11;64.82;95811.00;4184508;28;20626;-43
2023/02/15 02:05:06;;;;;;;35.83;24.63;;;;;;;3.06;65.45;95808.66;4174403;28;20052;-44
2023/02/15 02:07:09;;;;;;;41.47;23.58;;;;;;;3.07;65.42;95806.91;4192705;28;20124;-43
2023/02/15 02:09:12;;;;;;;38.58;25.00;;;;;;;3.05;65.07;95809.59;4193441;28;20434;-43
2023/02/15 02:11:14;;;;;;;38.33;22.48;;;;;;;3.08;64.79;95804.25;4194580;28;20049;-44
2023/02/15 02:13:16;;;;;;;38.30;23.48;;;;;;;3.17;65.33;95805.47;4181600;28;20056;-43
2023/02/15 02:15:18;;;;;;;41.45;23.70;;;;;;;3.16;65.26;95808.13;4194672;28;20140;-44
2023/02/15 02:17:47;;;;;;;35.10;21.23;;;;;;;3.13;64.83;95811.75;4193144;28;20132;-44
2023/02/15 02:20:10;;;;;;;35.92;21.95;;;;;;;3.18;65.08;95817.47;4178866;28;20488;-44
2023/02/15 02:22:33;;;;;;;36.28;23.67;;;;;;;3.17;65.08;95815.00;4194178;28;20080;-43
2023/02/15 02:24:57;;;;;;;35.17;23.10;;;;;;;3.21;65.29;95812.16;4183808;28;20044;-44
2023/02/15 02:27:30;;;;;;;34.90;22.40;;;;;;;3.26;64.94;95815.31;4194037;28;20052;-46
2023/02/15 02:29:37;;;;;;;35.00;21.63;;;;;;;3.29;64.49;95822.06;4183059;28;20405;-45
2023/02/15 02:31:53;;;;;;;35.95;23.17;;;;;;;3.16;64.97;95824.53;4194470;28;20068;-45
2023/02/15 02:34:10;;;;;;;33.70;21.83;;;;;;;3.15;65.29;95825.44;4194367;28;20409;-44
2023/02/15 02:36:16;;;;;;;38.88;23.90;;;;;;;3.20;65.12;95822.59;4194189;28;20052;-44
2023/02/15 02:38:31;;;;;;;35.92;23.90;;;;;;;3.22;64.96;95824.16;4187101;28;20083;-43
2023/02/15 02:40:41;;;;;;;33.92;22.50;;;;;;;3.31;65.14;95817.63;4192464;28;20547;-46
2023/02/15 02:42:58;;;;;;;37.72;21.67;;;;;;;3.34;64.56;95825.25;4192633;28;20040;-47
2023/02/15 02:45:06;;;;;;;34.88;22.02;;;;;;;3.44;64.60;95825.53;4192991;28;20525;-45
2023/02/15 02:47:26;;;;;;;34.47;21.55;;;;;;;3.40;64.02;95824.03;4193750;28;20197;-44
2023/02/15 02:49:32;;;;;;;32.22;21.35;;;;;;;3.40;64.38;95819.72;4203819;28;20044;-45
2023/02/15 02:51:33;;;;;;;32.35;21.27;;;;;;;3.34;64.68;95824.41;4195163;28;20167;-43
2023/02/15 02:53:35;;;;;;;33.53;21.33;;;;;;;3.38;64.79;95824.16;4193529;28;20048;-43
2023/02/15 02:55:40;;;;;;;33.72;21.52;;;;;;;3.37;64.20;95819.03;4193631;28;20049;-43
2023/02/15 02:57:52;;;;;;;33.50;21.80;;;;;;;3.40;64.57;95829.22;4192019;28;20074;-44
2023/02/15 02:59:55;;;;;;;35.10;21.08;;;;;;;3.37;64.33;95822.47;4193444;28;20053;-44
2023/02/15 03:02:17;;;;;;;33.63;21.52;;;;;;;3.39;64.38;95832.75;4191893;28;20085;-44
2023/02/15 03:04:23;;;;;;;35.83;21.75;;;;;;;3.51;64.46;95834.63;4193653;28;20048;-44
2023/02/15 03:06:34;;;;;;;34.78;21.50;;;;;;;3.44;64.36;95835.91;4175641;28;20049;-42
2023/02/15 03:08:57;;;;;;;32.72;21.15;;;;;;;3.42;64.38;95837.72;4186165;28;20343;-43
2023/02/15 03:11:00;;;;;;;32.90;20.43;;;;;;;3.35;64.79;95844.19;4188785;28;20048;-44
2023/02/15 03:13:02;;;;;;;35.47;22.52;;;;;;;3.35;64.97;95842.44;4190366;28;20344;-43
2023/02/15 03:15:16;;;;;;;36.00;21.50;;;;;;;3.36;65.17;95844.13;4194024;28;20400;-64
2023/02/15 03:17:20;;;;;;;33.90;21.38;;;;;;;3.33;65.29;95846.03;4192106;28;20055;-63
2023/02/15 03:19:24;;;;;;;;;;;;;;;3.31;65.26;95840.94;4193892;28;20167;-64
2023/02/15 03:21:49;;;;;;;29.95;20.55;;;;;;;3.31;65.13;95837.53;4192563;28;20360;-62
2023/02/15 03:23:59;;;;;;;33.88;20.55;;;;;;;3.36;65.44;95838.94;4191446;28;20052;-64
2023/02/15 03:26:03;;;;;;;34.58;21.35;;;;;;;3.35;64.94;95842.44;4192600;28;20136;-61
2023/02/15 03:28:12;;;;;;;;;;;;;;;3.36;64.82;95836.34;4191389;28;20056;-62
2023/02/15 03:30:15;;;;;;;33.08;20.02;;;;;;;3.36;65.17;95841.53;4192330;28;20576;-62
2023/02/15 03:32:17;;;;;;;34.30;19.65;;;;;;;3.41;64.61;95841.25;4191757;28;20102;-61
2023/02/15 03:34:19;;;;;;;34.38;20.48;;;;;;;3.43;64.91;95847.19;4193344;28;20072;-62
2023/02/15 03:36:55;;;;;;;30.15;20.38;;;;;;;3.45;65.13;95841.00;4191897;28;20059;-44
2023/02/15 03:39:15;;;;;;;35.10;21.02;;;;;;;3.48;64.57;95845.16;4180754;28;20123;-45
2023/02/15 03:41:18;;;;;;;29.58;19.80;;;;;;;3.41;64.55;95841.25;4192195;28;20110;-44
2023/02/15 03:43:37;;;;;;;34.45;21.27;;;;;;;3.36;65.18;95843.28;4190267;28;20128;-45
2023/02/15 03:45:54;;;;;;;30.77;19.65;;;;;;;3.38;64.83;95839.69;4181966;28;20048;-46
2023/02/15 03:47:56;;;;;;;33.97;21.25;;;;;;;3.34;65.14;95842.53;4193327;28;20060;-44
2023/02/15 03:51:33;;;;;;;31.55;20.42;;;;;;;3.34;65.18;95845.13;4182741;28;20150;-42
2023/02/15 03:52:31;;;;;;;31.58;19.83;;;;;;;3.39;65.06;95836.16;4191536;28;20045;-44
2023/02/15 03:54:47;;;;;;;34.55;20.63;;;;;;;3.37;65.21;95844.94;4191893;28;20048;-43
2023/02/15 04:01:56;;;;;;;30.85;19.10;;;;;;;3.40;65.13;95839.56;4182873;28;20094;-46
2023/02/15 04:04:03;;;;;;;34.05;20.90;;;;;;;3.34;65.40;95838.19;4181257;28;20129;-43
2023/02/15 04:06:05;;;;;;;29.30;19.48;;;;;;;3.39;65.01;95843.09;4191804;28;20106;-42
2023/02/15 04:08:07;;;;;;;30.33;18.88;;;;;;;3.46;64.99;95844.41;4192891;28;20469;-44
2023/02/15 04:12:30;;;;;;;32.15;19.90;;;;;;;3.20;65.97;95848.47;4192246;28;20222;-44
2023/02/15 04:16:52;;;;;;;31.65;18.85;;;;;;;3.43;65.20;95854.97;4193461;28;20048;-43
2023/02/15 04:25:55;;;;;;;33.22;20.40;;;;;;;3.52;64.71;95872.56;4191717;28;20044;-44
2023/02/15 04:27:56;;;;;;;34.00;20.70;;;;;;;3.37;65.44;95871.69;4192554;28;20102;-44
2023/02/15 04:29:58;;;;;;;31.25;20.38;;;;;;;3.49;65.23;95880.53;4195740;28;20053;-46
2023/02/15 04:32:01;;;;;;;33.08;20.85;;;;;;;3.56;65.41;95879.25;4182641;28;20075;-44
2023/02/15 04:34:03;;;;;;;33.60;20.77;;;;;;;3.55;65.63;95890.53;4195178;28;20048;-44
2023/02/15 04:36:05;;;;;;;33.70;21.17;;;;;;;3.52;65.23;95890.69;4196158;28;20048;-60
2023/02/15 04:38:06;;;;;;;32.80;20.95;;;;;;;3.42;65.24;95886.94;4194796;28;20048;-61
2023/02/15 04:40:12;;;;;;;34.38;21.35;;;;;;;3.39;65.83;95885.38;4196137;28;20127;-61
2023/02/15 04:42:13;;;;;;;32.30;20.85;;;;;;;3.47;65.99;95883.19;4194697;28;20450;-63
2023/02/15 04:44:15;;;;;;;38.47;20.38;;;;;;;3.47;65.72;95888.38;4196133;28;20105;-61
2023/02/15 04:46:17;;;;;;;32.13;20.63;;;;;;;3.49;65.56;95885.72;4195473;28;20048;-64
2023/02/15 04:48:19;;;;;;;34.72;21.58;;;;;;;3.56;65.41;95881.84;4195921;28;20119;-63
2023/02/15 04:50:20;;;;;;;32.05;20.00;;;;;;;3.53;65.32;95883.75;4195865;28;20080;-65
2023/02/15 04:52:22;;;;;;;32.70;19.92;;;;;;;3.51;65.56;95883.88;4226384;28;20051;-61
2023/02/15 04:54:24;;;;;;;33.53;22.02;;;;;;;3.53;66.00;95889.78;4195353;28;20048;-64
2023/02/15 04:56:25;;;;;;;35.38;21.83;;;;;;;3.55;65.48;95893.13;4195304;28;20138;-63
2023/02/15 04:58:27;;;;;;;34.17;20.38;;;;;;;3.53;65.55;95887.22;4193745;28;20122;-62
2023/02/15 05:00:29;;;;;;;34.63;20.35;;;;;;;3.55;65.51;95887.94;4195129;28;20055;-62
2023/02/15 05:02:30;;;;;;;32.20;20.30;;;;;;;3.58;65.57;95894.72;4195223;28;20048;-62
2023/02/15 05:04:32;;;;;;;32.72;21.10;;;;;;;3.51;65.17;95899.41;4195470;28;20048;-64
2023/02/15 05:06:34;;;;;;;33.03;20.67;;;;;;;3.59;65.53;95894.63;4195501;28;20153;-62
2023/02/15 05:08:36;;;;;;;34.88;20.20;;;;;;;3.57;65.16;95899.06;4195555;28;20049;-62
2023/02/15 05:10:38;;;;;;;34.83;21.20;;;;;;;3.54;65.68;95893.22;4195208;28;20110;-64
2023/02/15 05:12:39;;;;;;;32.28;20.30;;;;;;;3.54;65.68;95906.16;4194346;28;20522;-64
2023/02/15 05:14:41;;;;;;;30.98;20.75;;;;;;;3.55;65.28;95906.09;4195213;28;20044;-65
2023/02/15 05:16:42;;;;;;;34.70;21.25;;;;;;;3.51;65.23;95904.59;4194821;28;20059;-64
2023/02/15 05:18:44;;;;;;;32.63;19.35;;;;;;;3.53;65.43;95907.06;4194884;28;20152;-64
2023/02/15 05:20:46;;;;;;;35.30;21.70;;;;;;;3.56;65.47;95904.31;4195832;28;20059;-62
2023/02/15 05:22:48;;;;;;;31.33;19.42;;;;;;;3.56;65.58;95910.34;4194676;28;20047;-63
2023/02/15 05:29:31;;;;;;;37.28;20.83;;;;;;;3.56;65.19;95912.09;4195050;28;20113;-62
2023/02/15 05:31:33;;;;;;;31.80;20.63;;;;;;;3.59;65.51;95919.69;4195216;28;20045;-57
2023/02/15 05:33:35;;;;;;;39.58;21.02;;;;;;;3.58;65.21;95921.44;4195085;28;20109;-54
2023/02/15 05:35:37;;;;;;;30.38;20.10;;;;;;;3.71;65.56;95921.59;4194465;28;20053;-54
2023/02/15 05:37:39;;;;;;;32.25;20.60;;;;;;;3.71;64.99;95925.94;4194518;28;20149;-55
2023/02/15 05:39:41;;;;;;;30.90;19.45;;;;;;;3.69;64.85;95924.25;4194468;28;20096;-54
2023/02/15 05:41:43;;;;;;;31.88;20.35;;;;;;;3.72;65.00;95919.81;4194315;28;20127;-54
2023/02/15 05:43:45;;;;;;;31.83;20.42;;;;;;;3.73;64.92;95934.47;4192809;28;20043;-56
2023/02/15 05:45:51;;;;;;;33.00;21.02;;;;;;;3.71;64.46;95931.13;4194221;28;20052;-57
2023/02/15 05:47:53;;;;;;;31.45;20.23;;;;;;;3.78;64.41;95929.84;4193642;28;20560;-57
2023/02/15 05:49:55;;;;;;;30.17;19.13;;;;;;;3.82;64.60;95933.94;4195074;28;20741;-57
2023/02/15 05:51:56;;;;;;;30.95;19.95;;;;;;;3.67;64.73;95931.28;4193945;28;20481;-55
2023/02/15 05:53:58;;;;;;;31.95;20.70;;;;;;;3.72;64.78;95931.03;4194681;28;20047;-48
2023/02/15 05:56:02;;;;;;;32.83;20.65;;;;;;;3.79;64.83;95928.94;4195058;28;20102;-44
2023/02/15 05:58:04;;;;;;;32.70;20.50;;;;;;;3.84;64.40;95927.75;4187962;28;20114;-47
2023/02/15 06:00:06;;;;;;;29.60;19.70;;;;;;;3.82;64.68;95936.53;4189148;28;20141;-46
2023/02/15 06:02:08;;;;;;;33.60;20.17;;;;;;;3.84;64.58;95938.13;4194448;28;20448;-49
2023/02/15 06:04:10;;;;;;;31.55;20.17;;;;;;;3.72;64.51;95941.38;4193748;28;20040;-49
2023/02/15 06:06:12;;;;;;;33.03;19.73;;;;;;;3.82;64.22;95933.94;4188751;28;20051;-46
2023/02/15 06:08:14;;;;;;;29.80;20.17;;;;;;;3.77;65.05;95936.81;4193750;28;20398;-47
2023/02/15 06:10:15;;;;;;;31.67;19.27;;;;;;;3.73;64.95;95939.66;4194647;28;20197;-45
2023/02/15 06:12:17;;;;;;;33.70;19.85;;;;;;;3.74;64.49;95936.97;4193207;28;20204;-45
2023/02/15 06:14:19;;;;;;;34.42;19.25;;;;;;;3.64;64.92;95931.47;4194335;28;20044;-47
2023/02/15 06:16:21;;;;;;;34.17;20.23;;;;;;;3.68;64.91;95938.16;4193747;28;20072;-47
2023/02/15 06:18:22;;;;;;;31.73;20.20;;;;;;;3.70;64.50;95940.66;4190778;28;20078;-47
2023/02/15 06:20:25;;;;;;;34.10;21.25;;;;;;;3.79;64.91;95934.97;4193293;28;20446;-48
2023/02/15 06:22:26;;;;;;;31.98;18.75;;;;;;;3.84;64.31;95942.47;4193720;28;20482;-45
2023/02/15 06:24:28;;;;;;;30.67;19.70;;;;;;;3.87;64.17;95942.28;4192899;28;20454;-48
2023/02/15 06:26:30;;;;;;;31.50;19.30;;;;;;;3.89;64.58;95943.88;4192650;28;20547;-47
2023/02/15 06:28:31;;;;;;;31.65;20.10;;;;;;;3.91;64.06;95941.19;4192238;28;20497;-46
2023/02/15 06:30:33;;;;;;;28.55;18.20;;;;;;;3.84;64.59;95948.47;4193763;28;20106;-49
2023/02/15 06:32:35;;;;;;;27.85;18.50;;;;;;;3.71;64.42;95942.31;4194306;28;20149;-54
2023/02/15 06:34:37;;;;;;;31.58;19.08;;;;;;;3.74;64.81;95936.13;4194128;28;20501;-52
2023/02/15 06:36:39;;;;;;;30.05;18.50;;;;;;;3.89;64.53;95941.28;4191307;28;20048;-58
2023/02/15 06:38:41;;;;;;;29.70;18.67;;;;;;;3.97;63.84;95933.06;4191107;28;20487;-48
2023/02/15 06:40:42;;;;;;;31.35;19.27;;;;;;;3.99;63.86;95936.41;4194102;28;20654;-45
2023/02/15 06:42:44;;;;;;;29.42;19.40;;;;;;;4.03;64.04;95937.91;4192617;28;20586;-45
2023/02/15 06:44:46;;;;;;;32.28;19.65;;;;;;;4.10;63.56;95933.19;4192799;28;20063;-44
2023/02/15 06:46:48;;;;;;;27.17;18.88;;;;;;;4.13;62.97;95939.94;4193391;28;20056;-47
2023/02/15 06:48:49;;;;;;;28.27;17.60;;;;;;;4.08;63.61;95938.44;4193210;28;20052;-48
2023/02/15 06:50:52;;;;;;;27.33;17.80;;;;;;;4.14;63.43;95937.28;4192522;28;20053;-47
2023/02/15 06:52:59;;;;;;;25.90;16.77;;;;;;;4.13;62.72;95938.22;4191040;28;20662;-46
2023/02/15 06:55:01;;;;;;;28.88;18.42;;;;;;;4.06;63.15;95948.06;4193279;28;20137;-51
2023/02/15 06:57:02;;;;;;;28.80;18.17;;;;;;;4.09;63.00;95939.31;4187954;28;20155;-49
2023/02/15 06:59:04;;;;;;;30.90;18.30;;;;;;;4.06;63.15;95939.47;4193767;28;20486;-49
2023/02/15 07:01:06;;;;;;;32.75;19.40;;;;;;;4.16;62.63;95942.38;4191221;28;20489;-45
2023/02/15 07:03:08;;;;;;;31.00;18.30;;;;;;;4.19;62.10;95937.81;4190615;28;20490;-49
2023/02/15 07:05:10;;;;;;;31.52;18.70;;;;;;;4.22;62.21;95940.25;4192898;28;20045;-45
2023/02/15 07:07:12;;;;;;;32.10;18.52;;;;;;;4.21;62.40;95938.56;4192566;28;20116;-44
2023/02/15 07:09:14;;;;;;;29.75;16.98;;;;;;;4.27;62.40;95938.22;4192220;28;20139;-47
2023/02/15 07:13:36;;;;;;;28.85;18.58;;;;;;;4.49;61.44;95936.94;4191275;28;20158;-49
2023/02/15 07:15:38;;;;;;;28.75;17.52;;;;;;;4.42;60.81;95936.47;4191447;28;20055;-48
2023/02/15 07:17:40;;;;;;;24.88;16.02;;;;;;;4.42;61.20;95935.66;4192030;28;20072;-49
2023/02/15 07:19:41;;;;;;;29.33;18.42;;;;;;;4.39;61.96;95946.19;4193044;28;20040;-47
2023/02/15 07:21:45;;;;;;;28.70;17.95;;;;;;;4.46;61.07;95942.34;4192169;28;20047;-50
2023/02/15 07:23:47;;;;;;;25.27;16.98;;;;;;;4.55;61.18;95949.56;4192289;28;20044;-47
2023/02/15 07:25:56;;;;;;;29.17;17.38;;;;;;;4.37;60.70;95951.50;4193036;28;20121;-49
2023/02/15 07:28:02;;;;;;;31.23;18.48;;;;;;;4.42;60.81;95946.03;4192358;28;20052;-48
2023/02/15 07:30:06;;;;;;;33.85;18.77;;;;;;;4.60;61.10;95947.50;4191811;28;20464;-47
2023/02/15 07:32:08;;;;;;;30.20;18.13;;;;;;;4.60;61.32;95950.09;4192983;28;20060;-47
2023/02/15 07:34:10;;;;;;;27.95;16.98;;;;;;;4.41;60.36;95950.41;4188541;28;20413;-46
2023/02/15 07:36:12;;;;;;;26.27;16.17;;;;;;;4.34;61.14;95936.09;4192711;28;20117;-50
2023/02/15 07:38:14;;;;;;;27.00;17.80;;;;;;;4.46;60.78;95944.94;4186745;28;20076;-47
2023/02/15 07:40:16;;;;;;;40.13;19.88;;;;;;;4.46;60.79;95934.53;4188959;28;20459;-50
2023/02/15 07:42:19;;;;;;;29.30;17.92;;;;;;;4.34;61.21;95943.06;4192569;28;20186;-47
2023/02/15 07:44:21;;;;;;;36.67;19.17;;;;;;;4.42;61.54;95939.06;4193136;28;20048;-50
2023/02/15 07:46:22;;;;;;;25.38;15.88;;;;;;;4.52;60.89;95936.78;4193489;28;20071;-46
2023/02/15 07:48:24;;;;;;;23.88;16.38;;;;;;;4.54;60.74;95936.66;4193763;28;20049;-49
2023/02/15 07:50:26;;;;;;;26.15;16.45;;;;;;;4.67;60.37;95933.25;4193377;28;20637;-48
2023/02/15 07:52:27;;;;;;;26.45;16.15;;;;;;;4.65;60.68;95924.72;4192480;28;20087;-48
2023/02/15 07:54:29;;;;;;;32.10;16.88;;;;;;;4.73;59.99;95932.03;4193178;28;20088;-49
2023/02/15 07:56:32;;;;;;;25.33;16.05;;;;;;;4.58;60.76;95927.78;4192913;28;20437;-49
2023/02/15 07:58:51;;;;;;;30.50;17.63;;;;;;;4.49;60.22;95930.00;4192222;28;20514;-45
2023/02/15 08:01:00;;;;;;;32.78;16.65;;;;;;;4.54;61.28;95926.28;4192738;28;20390;-48
2023/02/15 08:03:15;;;;;;;28.10;15.48;;;;;;;4.35;61.56;95931.75;4193892;28;20124;-48
2023/02/15 08:05:18;;;;;;;;;;;;;;;4.45;61.13;95925.94;4197137;28;20051;-48
2023/02/15 08:07:19;;;;;;;25.70;16.40;;;;;;;4.55;61.07;95925.38;4194189;28;20055;-43
2023/02/15 08:09:21;;;;;;;27.27;16.42;;;;;;;4.48;60.61;95928.34;4197449;28;20562;-49
2023/02/15 08:11:25;;;;;;;24.95;15.52;;;;;;;4.57;60.87;95926.13;4189226;28;20088;-46
2023/02/15 08:13:27;;;;;;;20.40;13.43;;;;;;;4.60;60.74;95934.53;4188203;28;20072;-47
2023/02/15 08:15:28;;;;;;;26.10;14.98;;;;;;;4.67;60.65;95932.44;4197154;28;20204;-46
2023/02/15 08:17:30;;;;;;;26.10;15.18;;;;;;;4.45;60.42;95944.09;4196859;28;20060;-52
2023/02/15 08:19:32;;;;;;;25.88;15.25;;;;;;;4.52;60.18;95934.19;4196727;28;20370;-47
2023/02/15 08:21:36;;;;;;;24.27;15.18;;;;;;;4.43;60.67;95940.75;4197113;28;20059;-54
2023/02/15 08:23:38;;;;;;;27.98;16.08;;;;;;;4.44;60.63;95937.22;4195509;28;20382;-54
2023/02/15 08:25:40;;;;;;;28.17;16.13;;;;;;;4.47;60.94;95937.06;4195877;28;20109;-55
2023/02/15 08:27:41;;;;;;;24.75;16.08;;;;;;;4.59;60.65;95945.03;4194611;28;20076;-57
2023/02/15 08:29:43;;;;;;;24.25;15.07;;;;;;;4.72;59.53;95935.56;4195970;28;20086;-53
2023/02/15 08:31:45;;;;;;;24.13;14.80;;;;;;;4.84;59.16;95950.41;4196049;28;20676;-56
2023/02/15 08:33:49;;;;;;;31.92;18.27;;;;;;;4.89;59.54;95937.97;4196131;28;20048;-50
2023/02/15 08:35:50;;;;;;;28.00;17.45;;;;;;;4.86;59.34;95943.38;4196341;28;20092;-51
2023/02/15 08:37:52;;;;;;;25.48;15.30;;;;;;;4.76;59.62;95941.44;4190345;28;20053;-52
2023/02/15 08:39:54;;;;;;;22.02;14.20;;;;;;;4.82;59.31;95941.88;4196061;28;20075;-55
2023/02/15 08:41:55;;;;;;;26.83;16.52;;;;;;;4.64;60.23;95938.63;4195274;28;20048;-53
2023/02/15 08:43:59;;;;;;;25.75;16.05;;;;;;;4.03;61.05;95952.63;4195557;28;20417;-49
2023/02/15 08:46:01;;;;;;;31.63;18.05;;;;;;;3.92;62.05;95952.41;4196301;28;20455;-55
2023/02/15 08:48:03;;;;;;;31.60;17.60;;;;;;;3.83;61.83;95951.16;4195202;28;20048;-53
2023/02/15 08:50:05;;;;;;;27.52;16.27;;;;;;;4.05;61.66;95956.78;4195742;28;20072;-53
2023/02/15 08:52:07;;;;;;;26.38;14.98;;;;;;;4.17;60.52;95952.63;4195410;28;20108;-55
2023/02/15 08:54:12;;;;;;;26.45;16.02;;;;;;;4.47;60.86;95950.03;4196066;28;20421;-53
2023/02/15 08:56:13;;;;;;;27.95;15.45;;;;;;;4.59;59.94;95945.03;4195907;28;20556;-57
2023/02/15 08:58:15;;;;;;;25.70;15.20;;;;;;;4.77;59.84;95941.31;4194393;28;20044;-56
2023/02/15 09:00:17;;;;;;;24.77;15.02;;;;;;;4.82;59.51;95947.06;4196038;28;20448;-56
2023/02/15 09:02:19;;;;;;;22.15;15.07;;;;;;;4.70;58.90;95945.22;4195170;28;20208;-56
2023/02/15 09:04:22;;;;;;;25.33;16.38;;;;;;;4.69;59.24;95948.75;4195595;28;20048;-58
2023/02/15 09:06:25;;;;;;;25.80;16.00;;;;;;;4.62;59.79;95953.44;4196234;28;20048;-55
2023/02/15 09:08:27;;;;;;;24.63;15.85;;;;;;;4.68;58.92;95947.06;4193077;28;20044;-52
2023/02/15 09:10:29;;;;;;;27.67;16.88;;;;;;;4.55;58.67;95952.16;4195215;28;20048;-55
2023/02/15 09:12:31;;;;;;;31.85;18.23;;;;;;;4.70;59.08;95943.44;4193449;28;20059;-53
2023/02/15 09:14:33;;;;;;;24.52;15.90;;;;;;;4.83;58.38;95946.13;4194737;28;20044;-53
2023/02/15 09:16:36;;;;;;;27.05;15.13;;;;;;;5.01;57.94;95944.19;4195176;28;20114;-52
2023/02/15 09:18:39;;;;;;;27.05;16.63;;;;;;;4.97;58.35;95944.44;4194641;28;20086;-50
2023/02/15 09:20:41;;;;;;;27.33;15.90;;;;;;;4.97;58.82;95944.44;4195011;28;20460;-53
2023/02/15 09:22:42;;;;;;;25.23;16.38;;;;;;;5.04;57.77;95937.97;4193803;28;20048;-55
2023/02/15 09:24:44;;;;;;;25.13;15.93;;;;;;;5.07;57.63;95945.56;4194728;28;20127;-52
2023/02/15 09:26:47;;;;;;;28.02;16.13;;;;;;;4.96;58.40;95948.00;4194745;28;20074;-53
2023/02/15 09:28:52;;;;;;;28.67;17.73;;;;;;;4.94;58.22;95945.47;4194109;28;20048;-52
2023/02/15 09:30:55;;;;;;;29.10;15.35;;;;;;;5.04;58.21;95951.78;4182458;28;20058;-50
2023/02/15 09:32:57;;;;;;;30.38;15.88;;;;;;;5.04;58.27;95941.41;4195236;28;20409;-54
2023/02/15 09:34:58;;;;;;;24.65;16.15;;;;;;;4.96;58.30;95948.00;4195042;28;20374;-51
2023/02/15 09:37:00;;;;;;;24.90;15.25;;;;;;;5.07;57.79;95940.38;4194471;28;20053;-51
2023/02/15 09:39:12;;;;;;;28.40;17.10;;;;;;;5.12;58.27;95941.75;4195348;28;20048;-55
2023/02/15 09:41:29;;;;;;;27.40;18.02;;;;;;;5.04;58.29;95948.34;4195073;28;20080;-53
2023/02/15 09:43:41;;;;;;;32.25;18.05;;;;;;;4.87;58.04;95947.63;4193278;28;20106;-54
2023/02/15 09:46:12;;;;;;;26.02;15.88;;;;;;;4.87;59.16;95950.22;4195196;28;20043;-53
2023/02/15 09:48:20;;;;;;;29.45;16.67;;;;;;;4.92;58.94;95945.56;4193354;28;20056;-54
2023/02/15 09:50:28;;;;;;;30.92;18.52;;;;;;;4.72;60.14;95943.38;4193310;28;20083;-52
2023/02/15 09:52:57;;;;;;;34.13;20.30;;;;;;;4.68;59.64;95939.28;4194396;28;20070;-54
2023/02/15 09:55:28;;;;;;;31.20;19.05;;;;;;;4.89;59.72;95944.94;4194254;28;20746;-56
2023/02/15 09:57:40;;;;;;;26.30;17.00;;;;;;;4.96;58.62;95945.41;4178740;28;20121;-53
2023/02/15 10:00:04;;;;;;;27.92;16.95;;;;;;;5.00;58.38;95928.69;4195201;28;20090;-53
2023/02/15 10:02:24;;;;;;;27.88;16.92;;;;;;;5.17;58.08;95938.03;4183177;28;20040;-56
2023/02/15 10:04:32;;;;;;;26.35;16.20;;;;;;;5.36;57.35;95935.13;4195144;28;20083;-57
2023/02/15 10:06:41;;;;;;;27.83;16.83;;;;;;;5.36;57.42;95927.34;4188535;28;20052;-53